sensor_id;sensor_type;location;lat;lon;timestamp;temperature;humidity
2855;DHT22;1435;49.472;10.940;2023-01-28T00:01:38;3.50;99.90
2855;DHT22;1435;49.472;10.940;2023-01-28T00:06:40;3.40;99.90
2855;DHT22;1435;49.472;10.940;2023-01-28T00:11:43;3.50;99.90
2855;DHT22;1435;49.472;10.940;2023-01-28T00:16:45;3.50;99.90
2855;DHT22;1435;49.472;10.940;2023-01-28T00:21:47;3.50;99.90
2855;DHT22;1435;49.472;10.940;2023-01-28T00:26:50;3.50;99.90
2855;DHT22;1435;49.472;10.940;2023-01-28T00:31:52;3.50;99.90
2855;DHT22;1435;49.472;10.940;2023-01-28T00:36:54;3.50;99.90
2855;DHT22;1435;49.472;10.940;2023-01-28T00:41:59;3.50;99.90
2855;DHT22;1435;49.472;10.940;2023-01-28T00:47:00;3.50;99.90
2855;DHT22;1435;49.472;10.940;2023-01-28T00:52:02;3.50;99.90
2855;DHT22;1435;49.472;10.940;2023-01-28T00:57:05;3.50;99.90
2855;DHT22;1435;49.472;10.940;2023-01-28T01:02:07;3.50;99.90
2855;DHT22;1435;49.472;10.940;2023-01-28T01:07:12;3.60;99.90
2855;DHT22;1435;49.472;10.940;2023-01-28T01:12:15;3.50;99.90
2855;DHT22;1435;49.472;10.940;2023-01-28T01:17:17;3.50;99.90
2855;DHT22;1435;49.472;10.940;2023-01-28T01:22:19;3.50;99.90
2855;DHT22;1435;49.472;10.940;2023-01-28T01:27:22;3.50;99.90
2855;DHT22;1435;49.472;10.940;2023-01-28T01:32:24;3.50;99.90
2855;DHT22;1435;49.472;10.940;2023-01-28T01:37:29;3.50;99.90
2855;DHT22;1435;49.472;10.940;2023-01-28T01:42:32;3.60;99.90
2855;DHT22;1435;49.472;10.940;2023-01-28T01:47:39;3.50;99.90
2855;DHT22;1435;49.472;10.940;2023-01-28T01:52:42;3.50;99.90
2855;DHT22;1435;49.472;10.940;2023-01-28T01:57:47;3.60;99.90
2855;DHT22;1435;49.472;10.940;2023-01-28T02:02:51;3.50;99.90
2855;DHT22;1435;49.472;10.940;2023-01-28T02:07:54;3.60;99.90
2855;DHT22;1435;49.472;10.940;2023-01-28T02:13:20;3.60;99.90
2855;DHT22;1435;49.472;10.940;2023-01-28T02:18:22;3.60;99.90
2855;DHT22;1435;49.472;10.940;2023-01-28T02:23:37;3.60;99.90
2855;DHT22;1435;49.472;10.940;2023-01-28T02:28:49;3.50;99.90
2855;DHT22;1435;49.472;10.940;2023-01-28T02:33:57;3.60;99.90
2855;DHT22;1435;49.472;10.940;2023-01-28T02:39:04;3.60;99.90
2855;DHT22;1435;49.472;10.940;2023-01-28T02:44:09;3.60;99.90
2855;DHT22;1435;49.472;10.940;2023-01-28T02:49:13;3.60;99.90
2855;DHT22;1435;49.472;10.940;2023-01-28T02:54:23;3.60;99.90
2855;DHT22;1435;49.472;10.940;2023-01-28T02:59:32;3.60;99.90
2855;DHT22;1435;49.472;10.940;2023-01-28T03:04:40;3.60;99.90
2855;DHT22;1435;49.472;10.940;2023-01-28T03:09:46;3.60;99.90
2855;DHT22;1435;49.472;10.940;2023-01-28T03:14:55;3.60;99.90
2855;DHT22;1435;49.472;10.940;2023-01-28T03:20:15;3.60;99.90
2855;DHT22;1435;49.472;10.940;2023-01-28T03:25:35;3.60;99.90
2855;DHT22;1435;49.472;10.940;2023-01-28T03:31:01;3.60;99.90
2855;DHT22;1435;49.472;10.940;2023-01-28T03:36:21;3.60;99.90
2855;DHT22;1435;49.472;10.940;2023-01-28T03:41:41;3.60;99.90
2855;DHT22;1435;49.472;10.940;2023-01-28T03:46:44;3.60;99.90
2855;DHT22;1435;49.472;10.940;2023-01-28T03:51:47;3.60;99.90
2855;DHT22;1435;49.472;10.940;2023-01-28T03:56:49;3.60;99.90
2855;DHT22;1435;49.472;10.940;2023-01-28T04:01:52;3.60;99.90
2855;DHT22;1435;49.472;10.940;2023-01-28T04:06:55;3.60;99.90
2855;DHT22;1435;49.472;10.940;2023-01-28T04:11:56;3.70;99.90
2855;DHT22;1435;49.472;10.940;2023-01-28T04:17:00;3.70;99.90
2855;DHT22;1435;49.472;10.940;2023-01-28T04:22:04;3.70;99.90
2855;DHT22;1435;49.472;10.940;2023-01-28T04:27:06;3.60;99.90
2855;DHT22;1435;49.472;10.940;2023-01-28T04:32:09;3.60;99.90
2855;DHT22;1435;49.472;10.940;2023-01-28T04:37:11;3.60;99.90
2855;DHT22;1435;49.472;10.940;2023-01-28T04:42:12;3.70;99.90
2855;DHT22;1435;49.472;10.940;2023-01-28T04:47:15;3.70;99.90
2855;DHT22;1435;49.472;10.940;2023-01-28T04:52:19;3.70;99.90
2855;DHT22;1435;49.472;10.940;2023-01-28T04:57:21;3.60;99.90
2855;DHT22;1435;49.472;10.940;2023-01-28T05:02:24;3.60;99.90
2855;DHT22;1435;49.472;10.940;2023-01-28T05:07:26;3.70;99.90
2855;DHT22;1435;49.472;10.940;2023-01-28T05:12:27;3.70;99.90
2855;DHT22;1435;49.472;10.940;2023-01-28T05:17:31;3.60;99.90
2855;DHT22;1435;49.472;10.940;2023-01-28T05:22:32;3.60;99.90
2855;DHT22;1435;49.472;10.940;2023-01-28T05:27:34;3.60;99.90
2855;DHT22;1435;49.472;10.940;2023-01-28T05:32:37;3.60;99.90
2855;DHT22;1435;49.472;10.940;2023-01-28T05:37:39;3.60;99.90
2855;DHT22;1435;49.472;10.940;2023-01-28T05:42:41;3.60;99.90
2855;DHT22;1435;49.472;10.940;2023-01-28T05:47:44;3.60;99.90
2855;DHT22;1435;49.472;10.940;2023-01-28T05:52:45;3.60;99.90
2855;DHT22;1435;49.472;10.940;2023-01-28T05:57:47;3.60;99.90
2855;DHT22;1435;49.472;10.940;2023-01-28T06:02:51;3.60;99.90
2855;DHT22;1435;49.472;10.940;2023-01-28T06:07:53;3.60;99.90
2855;DHT22;1435;49.472;10.940;2023-01-28T06:12:55;3.60;99.90
2855;DHT22;1435;49.472;10.940;2023-01-28T06:17:58;3.50;99.90
2855;DHT22;1435;49.472;10.940;2023-01-28T06:23:00;3.60;99.90
2855;DHT22;1435;49.472;10.940;2023-01-28T06:28:01;3.60;99.90
2855;DHT22;1435;49.472;10.940;2023-01-28T06:33:04;3.50;99.90
2855;DHT22;1435;49.472;10.940;2023-01-28T06:38:06;3.50;99.90
2855;DHT22;1435;49.472;10.940;2023-01-28T06:43:08;3.50;99.90
2855;DHT22;1435;49.472;10.940;2023-01-28T06:48:11;3.60;99.90
2855;DHT22;1435;49.472;10.940;2023-01-28T06:53:13;3.60;99.90
2855;DHT22;1435;49.472;10.940;2023-01-28T06:58:15;3.50;99.90
2855;DHT22;1435;49.472;10.940;2023-01-28T07:03:18;3.50;99.90
2855;DHT22;1435;49.472;10.940;2023-01-28T07:08:20;3.50;99.90
2855;DHT22;1435;49.472;10.940;2023-01-28T07:13:21;3.50;99.90
2855;DHT22;1435;49.472;10.940;2023-01-28T07:18:24;3.50;99.90
2855;DHT22;1435;49.472;10.940;2023-01-28T07:23:26;3.60;99.90
2855;DHT22;1435;49.472;10.940;2023-01-28T07:28:28;3.60;99.90
2855;DHT22;1435;49.472;10.940;2023-01-28T07:33:32;3.60;99.90
2855;DHT22;1435;49.472;10.940;2023-01-28T07:38:33;3.50;99.90
2855;DHT22;1435;49.472;10.940;2023-01-28T07:43:35;3.50;99.90
2855;DHT22;1435;49.472;10.940;2023-01-28T07:48:38;3.50;99.90
2855;DHT22;1435;49.472;10.940;2023-01-28T07:53:40;3.60;99.90
2855;DHT22;1435;49.472;10.940;2023-01-28T07:58:42;3.60;99.90
2855;DHT22;1435;49.472;10.940;2023-01-28T08:03:45;3.50;99.90
2855;DHT22;1435;49.472;10.940;2023-01-28T08:08:46;3.60;99.90
2855;DHT22;1435;49.472;10.940;2023-01-28T08:13:48;3.50;99.90
2855;DHT22;1435;49.472;10.940;2023-01-28T08:18:52;3.60;99.90
2855;DHT22;1435;49.472;10.940;2023-01-28T08:23:53;3.60;99.90
2855;DHT22;1435;49.472;10.940;2023-01-28T08:28:56;3.70;99.90
2855;DHT22;1435;49.472;10.940;2023-01-28T08:33:59;3.70;99.90
2855;DHT22;1435;49.472;10.940;2023-01-28T08:39:01;3.70;99.90
2855;DHT22;1435;49.472;10.940;2023-01-28T08:44:03;3.70;99.90
2855;DHT22;1435;49.472;10.940;2023-01-28T08:49:06;3.80;99.90
2855;DHT22;1435;49.472;10.940;2023-01-28T08:54:08;3.70;99.90
2855;DHT22;1435;49.472;10.940;2023-01-28T08:59:09;3.80;99.90
2855;DHT22;1435;49.472;10.940;2023-01-28T09:04:12;3.80;99.90
2855;DHT22;1435;49.472;10.940;2023-01-28T09:09:14;3.90;99.90
2855;DHT22;1435;49.472;10.940;2023-01-28T09:14:16;3.90;99.90
2855;DHT22;1435;49.472;10.940;2023-01-28T09:19:19;3.90;99.90
2855;DHT22;1435;49.472;10.940;2023-01-28T09:24:21;3.90;99.90
2855;DHT22;1435;49.472;10.940;2023-01-28T09:29:23;4.00;99.90
2855;DHT22;1435;49.472;10.940;2023-01-28T09:34:26;4.00;99.90
2855;DHT22;1435;49.472;10.940;2023-01-28T09:39:28;4.00;99.90
2855;DHT22;1435;49.472;10.940;2023-01-28T09:44:39;4.00;99.90
2855;DHT22;1435;49.472;10.940;2023-01-28T09:49:47;4.10;99.90
2855;DHT22;1435;49.472;10.940;2023-01-28T09:54:52;4.00;99.90
2855;DHT22;1435;49.472;10.940;2023-01-28T09:59:56;4.00;99.90
2855;DHT22;1435;49.472;10.940;2023-01-28T10:05:09;4.10;99.90
2855;DHT22;1435;49.472;10.940;2023-01-28T10:10:18;4.10;99.90
2855;DHT22;1435;49.472;10.940;2023-01-28T10:20:53;4.10;99.90
2855;DHT22;1435;49.472;10.940;2023-01-28T10:25:57;4.10;99.90
2855;DHT22;1435;49.472;10.940;2023-01-28T10:30:59;4.10;99.90
2855;DHT22;1435;49.472;10.940;2023-01-28T10:36:02;4.10;99.90
2855;DHT22;1435;49.472;10.940;2023-01-28T10:41:04;4.20;99.90
2855;DHT22;1435;49.472;10.940;2023-01-28T10:46:10;4.20;99.90
2855;DHT22;1435;49.472;10.940;2023-01-28T10:51:14;4.30;99.90
2855;DHT22;1435;49.472;10.940;2023-01-28T10:56:24;4.30;99.90
2855;DHT22;1435;49.472;10.940;2023-01-28T11:01:38;4.30;99.90
2855;DHT22;1435;49.472;10.940;2023-01-28T11:06:42;4.40;99.90
2855;DHT22;1435;49.472;10.940;2023-01-28T11:11:52;4.40;99.90
2855;DHT22;1435;49.472;10.940;2023-01-28T11:16:57;4.50;99.90
2855;DHT22;1435;49.472;10.940;2023-01-28T11:22:00;4.40;99.90
2855;DHT22;1435;49.472;10.940;2023-01-28T11:27:11;4.50;99.90
2855;DHT22;1435;49.472;10.940;2023-01-28T11:32:18;4.50;99.90
2855;DHT22;1435;49.472;10.940;2023-01-28T11:37:25;4.50;99.90
2855;DHT22;1435;49.472;10.940;2023-01-28T11:42:27;4.50;99.90
2855;DHT22;1435;49.472;10.940;2023-01-28T11:47:40;4.50;99.90
2855;DHT22;1435;49.472;10.940;2023-01-28T11:52:54;4.60;99.90
2855;DHT22;1435;49.472;10.940;2023-01-28T11:58:02;4.50;99.90
2855;DHT22;1435;49.472;10.940;2023-01-28T12:03:26;4.60;99.90
2855;DHT22;1435;49.472;10.940;2023-01-28T12:08:40;4.60;99.90
2855;DHT22;1435;49.472;10.940;2023-01-28T12:13:53;4.60;99.90
2855;DHT22;1435;49.472;10.940;2023-01-28T12:19:23;4.60;99.90
2855;DHT22;1435;49.472;10.940;2023-01-28T12:24:41;4.60;99.90
2855;DHT22;1435;49.472;10.940;2023-01-28T12:29:53;4.70;99.90
2855;DHT22;1435;49.472;10.940;2023-01-28T12:35:20;4.70;99.90
2855;DHT22;1435;49.472;10.940;2023-01-28T12:40:43;4.70;99.90
2855;DHT22;1435;49.472;10.940;2023-01-28T12:45:48;4.70;99.90
2855;DHT22;1435;49.472;10.940;2023-01-28T12:50:55;4.70;99.90
2855;DHT22;1435;49.472;10.940;2023-01-28T12:56:04;4.70;99.90
2855;DHT22;1435;49.472;10.940;2023-01-28T13:01:10;4.60;99.90
2855;DHT22;1435;49.472;10.940;2023-01-28T13:06:16;4.60;99.90
2855;DHT22;1435;49.472;10.940;2023-01-28T13:11:23;4.60;99.90
2855;DHT22;1435;49.472;10.940;2023-01-28T13:16:25;4.60;99.90
2855;DHT22;1435;49.472;10.940;2023-01-28T13:21:33;4.60;99.90
2855;DHT22;1435;49.472;10.940;2023-01-28T13:26:44;4.60;99.90
2855;DHT22;1435;49.472;10.940;2023-01-28T13:31:47;4.60;99.90
2855;DHT22;1435;49.472;10.940;2023-01-28T13:36:49;4.50;99.90
2855;DHT22;1435;49.472;10.940;2023-01-28T13:41:55;4.50;99.90
2855;DHT22;1435;49.472;10.940;2023-01-28T13:47:19;4.60;99.90
2855;DHT22;1435;49.472;10.940;2023-01-28T13:52:27;4.50;99.90
2855;DHT22;1435;49.472;10.940;2023-01-28T13:58:01;4.50;99.90
2855;DHT22;1435;49.472;10.940;2023-01-28T14:09:22;4.50;99.90
2855;DHT22;1435;49.472;10.940;2023-01-28T14:14:46;4.40;99.90
2855;DHT22;1435;49.472;10.940;2023-01-28T14:19:56;4.50;99.90
2855;DHT22;1435;49.472;10.940;2023-01-28T14:25:00;4.50;99.90
2855;DHT22;1435;49.472;10.940;2023-01-28T14:30:10;4.50;99.90
2855;DHT22;1435;49.472;10.940;2023-01-28T14:35:27;4.40;99.90
2855;DHT22;1435;49.472;10.940;2023-01-28T14:40:29;4.40;99.90
2855;DHT22;1435;49.472;10.940;2023-01-28T14:45:44;4.40;99.90
2855;DHT22;1435;49.472;10.940;2023-01-28T14:51:13;4.40;99.90
2855;DHT22;1435;49.472;10.940;2023-01-28T14:56:30;4.40;99.90
2855;DHT22;1435;49.472;10.940;2023-01-28T15:01:43;4.30;99.90
2855;DHT22;1435;49.472;10.940;2023-01-28T15:06:45;4.30;99.90
2855;DHT22;1435;49.472;10.940;2023-01-28T15:11:49;4.30;99.90
2855;DHT22;1435;49.472;10.940;2023-01-28T15:16:53;4.20;99.90
2855;DHT22;1435;49.472;10.940;2023-01-28T15:21:57;4.20;99.90
2855;DHT22;1435;49.472;10.940;2023-01-28T15:27:00;4.20;99.90
2855;DHT22;1435;49.472;10.940;2023-01-28T15:32:04;4.10;99.90
2855;DHT22;1435;49.472;10.940;2023-01-28T15:37:09;4.10;99.90
2855;DHT22;1435;49.472;10.940;2023-01-28T15:42:19;4.00;99.90
2855;DHT22;1435;49.472;10.940;2023-01-28T15:47:25;4.00;99.90
2855;DHT22;1435;49.472;10.940;2023-01-28T15:52:31;4.00;99.90
2855;DHT22;1435;49.472;10.940;2023-01-28T15:57:34;3.90;99.90
2855;DHT22;1435;49.472;10.940;2023-01-28T16:02:43;3.80;99.90
2855;DHT22;1435;49.472;10.940;2023-01-28T16:07:45;3.80;99.90
2855;DHT22;1435;49.472;10.940;2023-01-28T16:12:48;3.80;99.90
2855;DHT22;1435;49.472;10.940;2023-01-28T16:17:53;3.70;99.90
2855;DHT22;1435;49.472;10.940;2023-01-28T16:22:57;3.70;99.90
2855;DHT22;1435;49.472;10.940;2023-01-28T16:28:01;3.70;99.90
2855;DHT22;1435;49.472;10.940;2023-01-28T16:33:13;3.60;99.90
2855;DHT22;1435;49.472;10.940;2023-01-28T16:38:17;3.60;99.90
2855;DHT22;1435;49.472;10.940;2023-01-28T16:43:19;3.60;99.90
2855;DHT22;1435;49.472;10.940;2023-01-28T16:48:22;3.50;99.90
2855;DHT22;1435;49.472;10.940;2023-01-28T16:53:28;3.50;99.90
2855;DHT22;1435;49.472;10.940;2023-01-28T16:58:31;3.50;99.90
2855;DHT22;1435;49.472;10.940;2023-01-28T17:03:35;3.40;99.90
2855;DHT22;1435;49.472;10.940;2023-01-28T17:08:36;3.50;99.90
2855;DHT22;1435;49.472;10.940;2023-01-28T17:13:40;3.40;99.90
2855;DHT22;1435;49.472;10.940;2023-01-28T17:18:43;3.40;99.90
2855;DHT22;1435;49.472;10.940;2023-01-28T17:23:44;3.40;99.90
2855;DHT22;1435;49.472;10.940;2023-01-28T17:28:50;3.30;99.90
2855;DHT22;1435;49.472;10.940;2023-01-28T17:33:55;3.30;99.90
2855;DHT22;1435;49.472;10.940;2023-01-28T17:38:57;3.30;99.90
2855;DHT22;1435;49.472;10.940;2023-01-28T17:43:59;3.30;99.90
2855;DHT22;1435;49.472;10.940;2023-01-28T17:49:02;3.20;99.90
2855;DHT22;1435;49.472;10.940;2023-01-28T17:54:04;3.20;99.90
2855;DHT22;1435;49.472;10.940;2023-01-28T17:59:05;3.20;99.90
2855;DHT22;1435;49.472;10.940;2023-01-28T18:04:08;3.20;99.90
2855;DHT22;1435;49.472;10.940;2023-01-28T18:09:12;3.10;99.90
2855;DHT22;1435;49.472;10.940;2023-01-28T18:14:14;3.00;99.90
2855;DHT22;1435;49.472;10.940;2023-01-28T18:19:17;3.10;99.90
2855;DHT22;1435;49.472;10.940;2023-01-28T18:24:19;3.00;99.90
2855;DHT22;1435;49.472;10.940;2023-01-28T18:29:23;3.00;99.90
2855;DHT22;1435;49.472;10.940;2023-01-28T18:34:28;3.00;99.90
2855;DHT22;1435;49.472;10.940;2023-01-28T18:39:31;3.00;99.90
2855;DHT22;1435;49.472;10.940;2023-01-28T18:44:32;2.90;99.90
2855;DHT22;1435;49.472;10.940;2023-01-28T18:49:35;3.00;99.90
2855;DHT22;1435;49.472;10.940;2023-01-28T18:54:37;2.80;99.90
2855;DHT22;1435;49.472;10.940;2023-01-28T18:59:39;2.90;99.90
2855;DHT22;1435;49.472;10.940;2023-01-28T19:04:42;2.90;99.90
2855;DHT22;1435;49.472;10.940;2023-01-28T19:09:44;2.90;99.90
2855;DHT22;1435;49.472;10.940;2023-01-28T19:14:47;2.90;99.90
2855;DHT22;1435;49.472;10.940;2023-01-28T19:19:50;2.90;99.90
2855;DHT22;1435;49.472;10.940;2023-01-28T19:24:52;2.90;99.90
2855;DHT22;1435;49.472;10.940;2023-01-28T19:29:54;2.90;99.90
2855;DHT22;1435;49.472;10.940;2023-01-28T19:34:57;2.90;99.90
2855;DHT22;1435;49.472;10.940;2023-01-28T19:39:58;2.80;99.90
2855;DHT22;1435;49.472;10.940;2023-01-28T19:45:00;2.80;99.90
2855;DHT22;1435;49.472;10.940;2023-01-28T19:50:04;2.80;99.90
2855;DHT22;1435;49.472;10.940;2023-01-28T19:55:07;2.80;99.90
2855;DHT22;1435;49.472;10.940;2023-01-28T20:00:10;2.70;99.90
2855;DHT22;1435;49.472;10.940;2023-01-28T20:05:13;2.70;99.90
2855;DHT22;1435;49.472;10.940;2023-01-28T20:10:16;2.60;99.90
2855;DHT22;1435;49.472;10.940;2023-01-28T20:15:18;2.60;99.90
2855;DHT22;1435;49.472;10.940;2023-01-28T20:20:21;2.60;99.90
2855;DHT22;1435;49.472;10.940;2023-01-28T20:25:23;2.60;99.90
2855;DHT22;1435;49.472;10.940;2023-01-28T20:30:24;2.50;99.90
2855;DHT22;1435;49.472;10.940;2023-01-28T20:35:28;2.50;99.90
2855;DHT22;1435;49.472;10.940;2023-01-28T20:40:30;2.60;99.90
2855;DHT22;1435;49.472;10.940;2023-01-28T20:45:32;2.50;99.90
2855;DHT22;1435;49.472;10.940;2023-01-28T20:50:35;2.50;99.90
2855;DHT22;1435;49.472;10.940;2023-01-28T20:55:36;2.50;99.90
2855;DHT22;1435;49.472;10.940;2023-01-28T21:00:38;2.50;99.90
2855;DHT22;1435;49.472;10.940;2023-01-28T21:05:43;2.50;99.90
2855;DHT22;1435;49.472;10.940;2023-01-28T21:10:45;2.40;99.90
2855;DHT22;1435;49.472;10.940;2023-01-28T21:15:51;2.30;99.90
2855;DHT22;1435;49.472;10.940;2023-01-28T21:20:54;2.30;99.90
2855;DHT22;1435;49.472;10.940;2023-01-28T21:26:00;2.30;99.90
2855;DHT22;1435;49.472;10.940;2023-01-28T21:31:06;2.30;99.90
2855;DHT22;1435;49.472;10.940;2023-01-28T21:36:12;2.30;99.90
2855;DHT22;1435;49.472;10.940;2023-01-28T21:41:14;2.20;99.90
2855;DHT22;1435;49.472;10.940;2023-01-28T21:46:15;2.20;99.90
2855;DHT22;1435;49.472;10.940;2023-01-28T21:51:18;2.20;99.90
2855;DHT22;1435;49.472;10.940;2023-01-28T21:56:41;2.20;99.90
2855;DHT22;1435;49.472;10.940;2023-01-28T22:01:43;2.20;99.90
2855;DHT22;1435;49.472;10.940;2023-01-28T22:06:46;2.10;99.90
2855;DHT22;1435;49.472;10.940;2023-01-28T22:11:48;2.10;99.90
2855;DHT22;1435;49.472;10.940;2023-01-28T22:16:51;2.10;99.90
2855;DHT22;1435;49.472;10.940;2023-01-28T22:21:55;2.10;99.90
2855;DHT22;1435;49.472;10.940;2023-01-28T22:26:56;2.10;99.90
2855;DHT22;1435;49.472;10.940;2023-01-28T22:31:59;2.10;99.90
2855;DHT22;1435;49.472;10.940;2023-01-28T22:37:04;2.00;99.90
2855;DHT22;1435;49.472;10.940;2023-01-28T22:42:07;2.10;99.90
2855;DHT22;1435;49.472;10.940;2023-01-28T22:47:09;2.10;99.90
2855;DHT22;1435;49.472;10.940;2023-01-28T22:52:12;2.10;99.90
2855;DHT22;1435;49.472;10.940;2023-01-28T22:57:13;2.10;99.90
2855;DHT22;1435;49.472;10.940;2023-01-28T23:02:15;2.10;99.90
2855;DHT22;1435;49.472;10.940;2023-01-28T23:07:18;2.00;99.90
2855;DHT22;1435;49.472;10.940;2023-01-28T23:12:20;2.00;99.90
2855;DHT22;1435;49.472;10.940;2023-01-28T23:17:22;2.00;99.90
2855;DHT22;1435;49.472;10.940;2023-01-28T23:22:42;1.90;99.90
2855;DHT22;1435;49.472;10.940;2023-01-28T23:28:02;1.90;99.90
2855;DHT22;1435;49.472;10.940;2023-01-28T23:33:04;1.90;99.90
2855;DHT22;1435;49.472;10.940;2023-01-28T23:38:07;1.90;99.90
2855;DHT22;1435;49.472;10.940;2023-01-28T23:43:09;1.80;99.90
2855;DHT22;1435;49.472;10.940;2023-01-28T23:48:12;1.80;99.90
2855;DHT22;1435;49.472;10.940;2023-01-28T23:53:15;1.80;99.90
2855;DHT22;1435;49.472;10.940;2023-01-28T23:58:16;1.70;99.90
